createdAt,value
2023-05-02T00:03:57.222Z,14.20
2023-05-02T00:07:57.684Z,12.90
2023-05-02T00:11:57.895Z,13.43
2023-05-02T00:16:00.682Z,13.47
2023-05-02T00:20:01.306Z,12.97
2023-05-02T00:24:01.864Z,12.40
2023-05-02T00:28:02.106Z,14.23
2023-05-02T00:32:04.860Z,14.73
2023-05-02T00:36:05.335Z,14.60
2023-05-02T00:40:06.157Z,13.33
2023-05-02T00:44:06.836Z,12.87
2023-05-02T00:48:10.867Z,13.33
2023-05-02T00:52:12.083Z,12.90
2023-05-02T00:56:12.552Z,13.33
2023-05-02T01:00:15.533Z,13.20
2023-05-02T01:04:38.863Z,14.53
2023-05-02T01:08:54.006Z,14.50
2023-05-02T01:13:04.142Z,13.50
2023-05-02T01:17:10.671Z,13.43
2023-05-02T01:21:15.667Z,12.90
2023-05-02T01:25:30.025Z,13.47
2023-05-02T01:29:34.430Z,12.93
2023-05-02T01:33:38.166Z,13.47
2023-05-02T01:37:42.390Z,13.43
2023-05-02T01:41:44.623Z,13.47
2023-05-02T01:45:51.736Z,13.73
2023-05-02T01:49:52.647Z,13.00
2023-05-02T01:53:54.794Z,12.23
2023-05-02T01:57:58.294Z,12.70
2023-05-02T02:02:04.290Z,13.30
2023-05-02T02:06:06.418Z,13.77
2023-05-02T02:10:07.217Z,14.07
2023-05-02T02:14:15.593Z,13.77
2023-05-02T02:18:25.448Z,13.13
2023-05-02T02:22:30.743Z,11.77
2023-05-02T02:26:30.972Z,11.83
2023-05-02T02:30:31.615Z,11.70
2023-05-02T02:34:34.709Z,12.43
2023-05-02T02:38:45.126Z,13.47
2023-05-02T02:42:58.438Z,12.50
2023-05-02T02:47:09.887Z,13.27
2023-05-02T02:51:22.561Z,13.97
2023-05-02T02:55:37.560Z,13.43
2023-05-02T02:59:45.597Z,13.27
2023-05-02T03:03:48.419Z,13.33
2023-05-02T03:07:51.627Z,13.77
2023-05-02T03:11:53.967Z,12.20
2023-05-02T03:16:39.057Z,12.87
2023-05-02T03:20:43.028Z,11.93
2023-05-02T03:24:46.538Z,12.87
2023-05-02T03:28:50.527Z,12.43
2023-05-02T03:32:56.139Z,12.00
2023-05-02T03:36:56.618Z,12.20
2023-05-02T03:41:00.499Z,12.53
2023-05-02T03:45:00.847Z,12.93
2023-05-02T03:49:01.893Z,13.60
2023-05-02T03:53:02.259Z,13.67
2023-05-02T03:57:15.499Z,13.60
2023-05-02T04:01:20.355Z,14.50
2023-05-02T04:05:23.388Z,15.73
2023-05-02T04:09:25.633Z,14.43
2023-05-02T04:13:33.781Z,15.93
2023-05-02T04:17:35.377Z,15.77
2023-05-02T04:21:35.921Z,15.93
2023-05-02T04:25:36.981Z,14.60
2023-05-02T04:29:40.555Z,15.30
2023-05-02T04:33:42.031Z,15.00
2023-05-02T04:37:42.860Z,14.17
2023-05-02T04:41:43.710Z,14.93
2023-05-02T04:45:46.605Z,14.63
2023-05-02T04:49:54.300Z,15.73
2023-05-02T04:53:54.547Z,15.40
2023-05-02T04:57:55.193Z,16.60
2023-05-02T05:01:58.336Z,15.70
2023-05-02T05:05:59.165Z,15.33
2023-05-02T05:10:00.271Z,15.20
2023-05-02T05:14:05.061Z,13.97
2023-05-02T05:18:10.897Z,14.67
2023-05-02T05:22:12.422Z,15.87
2023-05-02T05:26:13.821Z,15.13
2023-05-02T05:30:15.983Z,15.67
2023-05-02T05:34:19.887Z,13.70
2023-05-02T05:38:21.305Z,14.93
2023-05-02T05:42:22.491Z,13.73
2023-05-02T05:46:27.322Z,12.30
2023-05-02T05:50:31.074Z,12.33
2023-05-02T05:54:31.549Z,12.87
2023-05-02T05:58:33.518Z,12.43
2023-05-02T06:02:33.896Z,11.57
2023-05-02T06:06:37.770Z,11.80
2023-05-02T06:10:38.152Z,12.07
2023-05-02T06:14:38.876Z,11.73
2023-05-02T06:18:39.464Z,11.47
2023-05-02T06:22:43.377Z,10.90
2023-05-02T06:26:43.582Z,11.30
2023-05-02T06:30:43.764Z,11.60
2023-05-02T06:34:44.060Z,11.37
2023-05-02T06:38:46.933Z,10.17
2023-05-02T06:42:47.324Z,10.00
2023-05-02T06:46:47.620Z,9.77
2023-05-02T06:50:47.817Z,9.63
2023-05-02T06:54:50.902Z,9.05
2023-05-02T06:58:51.245Z,8.73
2023-05-02T07:02:52.665Z,8.90
2023-05-02T07:06:53.534Z,9.20
2023-05-02T07:10:56.355Z,9.30
2023-05-02T07:14:56.538Z,10.20
2023-05-02T07:18:56.777Z,9.85
2023-05-02T07:22:57.282Z,9.10
2023-05-02T07:27:00.124Z,9.75
2023-05-02T07:31:00.570Z,9.77
2023-05-02T07:35:00.985Z,9.98
2023-05-02T07:39:01.121Z,9.82
2023-05-02T07:43:04.532Z,9.68
2023-05-02T07:47:04.678Z,8.63
2023-05-02T07:51:14.433Z,8.57
2023-05-02T07:55:15.375Z,8.90
2023-05-02T07:59:18.360Z,8.80
2023-05-02T08:03:18.710Z,9.68
2023-05-02T08:07:19.067Z,10.47
2023-05-02T08:11:21.917Z,10.60
2023-05-02T08:15:25.527Z,11.80
2023-05-02T08:19:25.951Z,12.40
2023-05-02T08:23:26.107Z,12.97
2023-05-02T08:27:26.325Z,13.50
2023-05-02T08:31:29.213Z,15.23
2023-05-02T08:35:31.558Z,13.70
2023-05-02T08:39:35.720Z,13.60
2023-05-02T08:43:36.417Z,13.63
2023-05-02T08:47:41.389Z,12.30
2023-05-02T08:51:43.443Z,13.67
2023-05-02T08:55:45.301Z,13.23
2023-05-02T08:59:46.367Z,12.97
2023-05-02T09:03:53.375Z,13.10
2023-05-02T09:07:55.308Z,13.60
2023-05-02T09:11:56.192Z,13.30
2023-05-02T09:16:02.399Z,14.40
2023-05-02T09:20:09.922Z,15.17
2023-05-02T09:24:19.891Z,14.47
2023-05-02T09:28:20.147Z,13.60
2023-05-02T09:32:20.419Z,13.37
2023-05-02T09:36:24.934Z,11.53
2023-05-02T09:40:28.197Z,11.73
2023-05-02T09:44:39.727Z,10.77
2023-05-02T09:48:57.551Z,11.00
2023-05-02T09:53:08.524Z,8.93
2023-05-02T09:57:11.220Z,8.23
2023-05-02T10:01:17.863Z,8.02
2023-05-02T10:05:18.839Z,7.80
2023-05-02T10:09:24.309Z,8.07
2023-05-02T10:13:27.617Z,8.32
2023-05-02T10:17:37.204Z,9.15
2023-05-02T10:21:39.916Z,8.35
2023-05-02T10:25:43.336Z,7.60
2023-05-02T10:29:45.374Z,7.28
2023-05-02T10:33:46.161Z,7.10
2023-05-02T10:37:48.724Z,6.55
2023-05-02T10:41:51.868Z,8.65
2023-05-02T10:45:52.577Z,8.15
2023-05-02T10:49:58.896Z,8.57
2023-05-02T10:54:22.542Z,8.40
2023-05-02T10:58:28.362Z,7.07
2023-05-02T11:02:51.922Z,7.57
2023-05-02T11:07:22.653Z,7.43
2023-05-02T11:11:50.934Z,7.82
2023-05-02T11:16:03.029Z,6.78
2023-05-02T11:20:28.378Z,7.47
2023-05-02T11:24:42.504Z,7.10
2023-05-02T11:28:48.494Z,6.43
2023-05-02T11:33:20.472Z,7.00
2023-05-02T11:37:21.373Z,7.45
2023-05-02T11:41:21.609Z,6.80
2023-05-02T11:45:22.683Z,7.53
2023-05-02T11:49:25.886Z,5.90
2023-05-02T11:53:29.793Z,6.93
2023-05-02T11:57:30.340Z,6.47
2023-05-02T12:01:30.984Z,7.15
2023-05-02T12:05:34.027Z,6.60
2023-05-02T12:09:34.247Z,4.78
2023-05-02T12:13:34.390Z,5.18
2023-05-02T12:17:35.324Z,5.88
2023-05-02T12:21:38.412Z,5.22
2023-05-02T12:25:42.177Z,5.53
2023-05-02T12:29:48.573Z,5.50
2023-05-02T12:33:52.655Z,5.82
2023-05-02T12:37:56.432Z,5.07
2023-05-02T12:41:56.795Z,5.85
2023-05-02T12:46:15.209Z,5.80
2023-05-02T12:50:15.470Z,5.38
2023-05-02T12:54:26.892Z,5.20
2023-05-02T12:58:28.749Z,4.82
2023-05-02T13:02:29.075Z,5.13
2023-05-02T13:06:29.367Z,4.97
2023-05-02T13:10:32.940Z,4.13
2023-05-02T13:14:33.253Z,4.80
2023-05-02T13:18:33.629Z,5.22
2023-05-02T13:22:34.066Z,4.20
2023-05-02T13:26:36.968Z,3.90
2023-05-02T13:30:37.313Z,3.38
2023-05-02T13:34:37.559Z,3.70
2023-05-02T13:38:38.272Z,4.10
2023-05-02T13:42:41.239Z,4.60
2023-05-02T13:46:41.590Z,5.40
2023-05-02T13:50:41.945Z,6.32
2023-05-02T13:54:42.880Z,6.60
2023-05-02T13:58:45.775Z,6.70
2023-05-02T14:02:48.467Z,6.23
2023-05-02T14:06:48.791Z,4.33
2023-05-02T14:10:49.135Z,3.60
2023-05-02T14:14:52.114Z,3.00
2023-05-02T14:18:52.338Z,3.50
2023-05-02T14:22:52.633Z,3.40
2023-05-02T14:26:53.074Z,3.40
2023-05-02T14:30:55.983Z,3.70
2023-05-02T14:34:56.211Z,3.00
2023-05-02T14:38:56.550Z,2.90
2023-05-02T14:42:56.874Z,3.03
2023-05-02T14:47:00.673Z,3.20
2023-05-02T14:51:01.463Z,3.35
2023-05-02T14:55:03.364Z,3.30
2023-05-02T14:59:04.005Z,3.05
2023-05-02T15:03:08.014Z,1.95
2023-05-02T15:07:08.548Z,2.20
2023-05-02T15:11:09.471Z,2.15
2023-05-02T15:15:12.230Z,1.98
2023-05-02T15:19:15.173Z,3.80
2023-05-02T15:23:15.481Z,4.55
2023-05-02T15:27:15.792Z,3.50
2023-05-02T15:31:16.193Z,4.10
2023-05-02T15:35:22.384Z,3.28
2023-05-02T15:39:26.669Z,3.03
2023-05-02T15:43:29.552Z,2.92
2023-05-02T15:47:32.089Z,2.30
2023-05-02T15:51:35.769Z,2.22
2023-05-02T15:55:36.689Z,1.77
2023-05-02T15:59:37.075Z,2.20
2023-05-02T16:03:37.717Z,3.25
2023-05-02T16:07:41.053Z,3.03
2023-05-02T16:11:41.422Z,2.75
2023-05-02T16:15:42.512Z,3.25
2023-05-02T16:19:43.163Z,4.18
2023-05-02T16:23:46.142Z,3.85
2023-05-02T16:27:46.715Z,4.05
2023-05-02T16:31:47.516Z,3.35
2023-05-02T16:35:47.869Z,3.40
2023-05-02T16:39:50.783Z,3.30
2023-05-02T16:43:52.566Z,3.60
2023-05-02T16:47:52.890Z,3.60
2023-05-02T16:51:55.006Z,4.32
2023-05-02T16:55:59.933Z,3.42
2023-05-02T17:00:00.815Z,3.55
2023-05-02T17:04:02.170Z,3.65
2023-05-02T17:08:02.909Z,3.28
2023-05-02T17:12:06.048Z,3.00
2023-05-02T17:16:08.428Z,2.63
2023-05-02T17:20:11.286Z,2.97
2023-05-02T17:24:12.405Z,4.28
2023-05-02T17:28:15.596Z,3.50
2023-05-02T17:32:16.070Z,3.53
2023-05-02T17:36:16.596Z,3.55
2023-05-02T17:40:17.246Z,4.30
2023-05-02T17:44:20.332Z,4.45
2023-05-02T17:48:21.313Z,5.00
2023-05-02T17:52:21.956Z,4.70
2023-05-02T17:56:22.762Z,4.80
2023-05-02T18:00:26.598Z,5.70
2023-05-02T18:04:27.404Z,5.03
2023-05-02T18:08:27.915Z,5.03
2023-05-02T18:12:28.395Z,6.00
2023-05-02T18:16:32.177Z,5.18
2023-05-02T18:20:32.623Z,5.40
2023-05-02T18:24:34.569Z,5.75
2023-05-02T18:28:37.085Z,5.80
2023-05-02T18:32:40.574Z,5.28
2023-05-02T18:36:41.297Z,5.50
2023-05-02T18:40:41.949Z,5.43
2023-05-02T18:44:42.499Z,6.00
2023-05-02T18:48:46.278Z,5.43
2023-05-02T18:52:46.718Z,6.00
2023-05-02T18:56:50.081Z,6.70
2023-05-02T19:00:50.680Z,6.10
2023-05-02T19:04:53.946Z,5.87
2023-05-02T19:08:54.402Z,5.30
2023-05-02T19:12:57.969Z,5.97
2023-05-02T19:17:15.384Z,6.23
2023-05-02T19:21:29.819Z,6.33
2023-05-02T19:25:33.237Z,6.00
2023-05-02T19:29:34.098Z,6.40
2023-05-02T19:33:42.141Z,6.80
2023-05-02T19:37:51.602Z,6.53
2023-05-02T19:41:55.314Z,6.93
2023-05-02T19:45:59.149Z,6.40
2023-05-02T19:49:59.659Z,6.87
2023-05-02T19:54:03.002Z,6.63
2023-05-02T19:58:04.576Z,6.10
2023-05-02T20:02:05.116Z,5.77
2023-05-02T20:06:06.231Z,5.77
2023-05-02T20:10:12.407Z,6.03
2023-05-02T20:14:12.696Z,6.07
2023-05-02T20:18:13.074Z,7.37
2023-05-02T20:22:13.468Z,6.17
2023-05-02T20:26:18.081Z,5.50
2023-05-02T20:30:18.478Z,11.17
2023-05-02T20:34:19.002Z,32.97
2023-05-02T20:38:20.652Z,9.37
2023-05-02T20:42:26.512Z,5.83
2023-05-02T20:46:26.928Z,5.57
2023-05-02T20:50:27.345Z,5.10
2023-05-02T20:54:27.936Z,5.00
2023-05-02T20:58:31.201Z,7.00
2023-05-02T21:02:31.769Z,4.63
2023-05-02T21:06:32.889Z,4.50
2023-05-02T21:10:33.506Z,4.40
2023-05-02T21:14:37.012Z,3.77
2023-05-02T21:18:37.422Z,4.03
2023-05-02T21:22:38.375Z,4.63
2023-05-02T21:26:39.373Z,4.20
2023-05-02T21:30:42.579Z,3.97
2023-05-02T21:34:43.474Z,5.00
2023-05-02T21:38:45.585Z,4.50
2023-05-02T21:42:46.373Z,4.50
2023-05-02T21:46:50.726Z,4.23
2023-05-02T21:50:51.084Z,4.63
2023-05-02T21:54:52.691Z,4.40
2023-05-02T21:58:52.828Z,4.17
2023-05-02T22:02:55.717Z,3.93
2023-05-02T22:06:56.224Z,4.33
2023-05-02T22:10:56.501Z,5.33
2023-05-02T22:14:56.697Z,5.30
2023-05-02T22:19:00.422Z,4.20
2023-05-02T22:23:00.697Z,4.10
2023-05-02T22:27:01.052Z,5.00
2023-05-02T22:31:01.303Z,5.07
2023-05-02T22:35:04.421Z,5.27
2023-05-02T22:39:05.356Z,4.83
2023-05-02T22:43:05.739Z,4.70
2023-05-02T22:47:06.785Z,5.00
2023-05-02T22:51:09.877Z,4.73
2023-05-02T22:55:12.127Z,4.97
2023-05-02T22:59:12.824Z,4.47
2023-05-02T23:03:13.374Z,5.10
2023-05-02T23:07:16.267Z,5.03
2023-05-02T23:11:16.930Z,5.50
2023-05-02T23:15:17.186Z,5.83
2023-05-02T23:19:18.295Z,5.80
2023-05-02T23:23:21.190Z,6.27
2023-05-02T23:27:21.518Z,6.83
2023-05-02T23:31:22.449Z,6.50
2023-05-02T23:35:23.342Z,6.23
2023-05-02T23:39:26.744Z,6.50
2023-05-02T23:43:27.471Z,5.83
2023-05-02T23:47:28.381Z,6.13
2023-05-02T23:51:29.416Z,6.60
2023-05-02T23:55:32.113Z,6.57
2023-05-02T23:59:32.285Z,7.30
